TLSO2: Arkansas River, Tulsa, OK

                                SHEF ID:       TLSO2     Arkansas River at Tulsa, OK
STATION TYPE: Stream Gauge
Regulating: Stage = 15.00, Flow = 96489

PRECIP STAGE STAGE(2) RIV-FLOW WTR-TEMP DIS-OXY BAT-LOAD
in ft ft cfs F mg/l volt
Ccp-Rev Ccp-Rev Ccp-Rev Ccp-Rev Ccp-Rev Ccp-Rev Ccp-Rev
(America/Chicago)
05/03 00:00 0.00 4.70 ---- 6258 70.48 7.51 ----
05/03 01:00 0.00 4.70 ---- 6258 69.66 7.28 ----
05/03 02:00 0.00 4.70 ---- 6258 68.85 7.00 ----
05/03 03:00 0.00 4.70 ---- 6258 67.69 6.77 ----
05/03 04:00 0.00 4.71 ---- 6324 66.90 6.55 ----
05/03 05:00 0.00 4.71 ---- 6324 66.24 6.35 ----
05/03 06:00 0.00 4.70 ---- 6258 65.61 6.18 ----
05/03 07:00 0.00 4.69 ---- 6190 65.16 6.10 ----
05/03 08:00 0.00 4.71 ---- 6324 64.90 6.11 ----
05/03 09:00 0.00 4.67 ---- 6053 64.96 6.23 ----
05/03 10:00 0.00 4.71 ---- 6324 65.34 6.49 ----
05/03 11:00 0.00 4.72 ---- 6390 66.02 6.87 ----
05/03 12:00 0.00 4.71 ---- 6324 67.06 7.00 ----
05/03 13:00 0.00 4.69 ---- 6190 68.16 7.31 ----
05/03 14:00 0.00 4.68 ---- 6121 69.48 7.43 ----
05/03 15:00 0.00 4.69 ---- 6190 70.65 7.62 ----
05/03 16:00 0.00 4.68 ---- 6121 71.67 7.88 ----
05/03 17:00 0.00 4.69 ---- 6190 72.45 8.12 ----
05/03 18:00 0.00 4.68 ---- 6121 72.86 8.29 ----
05/03 19:00 0.00 4.69 ---- 6190 72.99 8.17 ----
05/03 20:00 0.00 4.69 ---- 6190 72.77 8.03 ----
05/03 21:00 0.00 4.71 ---- 6324 72.46 7.86 ----
05/03 22:00 0.00 4.69 ---- 6190 72.00 7.73 ----
05/03 23:00 ---- ---- ---- ---- ---- ---- ----
Data processed at Mon 04May2026 03:48 GMT

NOTICE: If you are parsing this page

Please convert to using our Data API. Starting early 2026 we will be migrating to: https://water.usace.army.mil with modern pages rendered in JavaScript. When this migration completes you will no longer be able to scrape this page! CWMSDataAPI (CDA)

Timeseries IDs (TSIDs)

TSIDs used from left to right in the data table
TULA.Precip-Inc.Total.1Hour.1Hour.Ccp-Rev
TULA.Stage.Inst.1Hour.0.Ccp-Rev
TULA.Stage-Alt.Inst.1Hour.0.Ccp-Rev
TULA.Flow.Inst.1Hour.0.Ccp-Rev
TULA.Temp-Water.Inst.1Hour.0.Ccp-Rev
TULA.Conc-DO.Inst.1Hour.0.Ccp-Rev
TULA.Volt-Battery Load.Inst.1Hour.0.Ccp-Rev

                            

All information presented herein is the property of the government of the United States of America and may be revised or deleted at any time without prior notice. Dissemination of this information without the expressed written consent of the Public Affairs Office, Tulsa District U.S. Army Corps of Engineers is strictly prohibited. These data are gathered electronically and, as presented, have NOT undergone any form of quality control. These data are NOT guaranteed to be valid or correct.